sensor_id;sensor_type;location;lat;lon;timestamp;P1;durP1;ratioP1;P2;durP2;ratioP2
8058;SDS011;75058;42.668;23.396;2024-01-27T00:01:30;4.17;;;1.60;;
8058;SDS011;75058;42.668;23.396;2024-01-27T00:03:58;4.40;;;1.80;;
8058;SDS011;75058;42.668;23.396;2024-01-27T00:06:26;9.40;;;2.27;;
8058;SDS011;75058;42.668;23.396;2024-01-27T00:08:55;7.93;;;1.93;;
8058;SDS011;75058;42.668;23.396;2024-01-27T00:11:23;6.93;;;1.87;;
8058;SDS011;75058;42.668;23.396;2024-01-27T00:13:53;6.67;;;1.50;;
8058;SDS011;75058;42.668;23.396;2024-01-27T00:16:21;6.50;;;1.93;;
8058;SDS011;75058;42.668;23.396;2024-01-27T00:18:50;4.73;;;1.17;;
8058;SDS011;75058;42.668;23.396;2024-01-27T00:21:18;6.57;;;2.10;;
8058;SDS011;75058;42.668;23.396;2024-01-27T00:23:46;12.33;;;2.00;;
8058;SDS011;75058;42.668;23.396;2024-01-27T00:26:15;7.70;;;2.17;;
8058;SDS011;75058;42.668;23.396;2024-01-27T00:28:43;12.40;;;3.97;;
8058;SDS011;75058;42.668;23.396;2024-01-27T00:31:11;10.77;;;3.90;;
8058;SDS011;75058;42.668;23.396;2024-01-27T00:33:39;8.27;;;3.90;;
8058;SDS011;75058;42.668;23.396;2024-01-27T00:36:08;12.13;;;4.27;;
8058;SDS011;75058;42.668;23.396;2024-01-27T00:38:36;16.13;;;4.43;;
8058;SDS011;75058;42.668;23.396;2024-01-27T00:41:05;10.17;;;4.13;;
8058;SDS011;75058;42.668;23.396;2024-01-27T00:43:33;10.63;;;3.73;;
8058;SDS011;75058;42.668;23.396;2024-01-27T00:46:01;10.30;;;3.40;;
8058;SDS011;75058;42.668;23.396;2024-01-27T00:48:29;11.63;;;3.40;;
8058;SDS011;75058;42.668;23.396;2024-01-27T00:50:57;10.37;;;3.77;;
8058;SDS011;75058;42.668;23.396;2024-01-27T00:53:27;10.90;;;3.73;;
8058;SDS011;75058;42.668;23.396;2024-01-27T00:55:55;6.90;;;3.23;;
8058;SDS011;75058;42.668;23.396;2024-01-27T00:58:22;13.90;;;3.83;;
8058;SDS011;75058;42.668;23.396;2024-01-27T01:00:51;16.90;;;5.33;;
8058;SDS011;75058;42.668;23.396;2024-01-27T01:03:19;16.67;;;5.70;;
8058;SDS011;75058;42.668;23.396;2024-01-27T01:05:47;17.43;;;5.63;;
8058;SDS011;75058;42.668;23.396;2024-01-27T01:08:15;23.07;;;5.87;;
8058;SDS011;75058;42.668;23.396;2024-01-27T01:10:44;25.23;;;7.57;;
8058;SDS011;75058;42.668;23.396;2024-01-27T01:13:13;21.00;;;7.67;;
8058;SDS011;75058;42.668;23.396;2024-01-27T01:15:41;19.73;;;6.33;;
8058;SDS011;75058;42.668;23.396;2024-01-27T01:18:09;24.47;;;6.97;;
8058;SDS011;75058;42.668;23.396;2024-01-27T01:20:37;15.13;;;6.20;;
8058;SDS011;75058;42.668;23.396;2024-01-27T01:23:05;23.30;;;6.70;;
8058;SDS011;75058;42.668;23.396;2024-01-27T01:25:33;28.63;;;6.97;;
8058;SDS011;75058;42.668;23.396;2024-01-27T01:28:03;19.43;;;7.13;;
8058;SDS011;75058;42.668;23.396;2024-01-27T01:30:31;9.17;;;3.77;;
8058;SDS011;75058;42.668;23.396;2024-01-27T01:32:59;13.27;;;4.93;;
8058;SDS011;75058;42.668;23.396;2024-01-27T01:35:27;11.83;;;4.40;;
8058;SDS011;75058;42.668;23.396;2024-01-27T01:37:55;13.33;;;5.27;;
8058;SDS011;75058;42.668;23.396;2024-01-27T01:40:23;14.03;;;4.90;;
8058;SDS011;75058;42.668;23.396;2024-01-27T01:42:51;12.83;;;5.03;;
8058;SDS011;75058;42.668;23.396;2024-01-27T01:45:21;9.43;;;3.43;;
8058;SDS011;75058;42.668;23.396;2024-01-27T01:47:49;8.77;;;4.03;;
8058;SDS011;75058;42.668;23.396;2024-01-27T01:50:17;16.07;;;4.37;;
8058;SDS011;75058;42.668;23.396;2024-01-27T01:52:45;12.57;;;5.07;;
8058;SDS011;75058;42.668;23.396;2024-01-27T01:55:15;6.33;;;3.43;;
8058;SDS011;75058;42.668;23.396;2024-01-27T01:57:43;9.40;;;3.40;;
8058;SDS011;75058;42.668;23.396;2024-01-27T02:00:12;10.47;;;3.37;;
8058;SDS011;75058;42.668;23.396;2024-01-27T02:02:44;10.23;;;3.40;;
8058;SDS011;75058;42.668;23.396;2024-01-27T02:05:12;8.47;;;2.90;;
8058;SDS011;75058;42.668;23.396;2024-01-27T02:07:41;6.67;;;3.17;;
8058;SDS011;75058;42.668;23.396;2024-01-27T02:10:12;11.83;;;3.67;;
8058;SDS011;75058;42.668;23.396;2024-01-27T02:12:41;8.87;;;3.87;;
8058;SDS011;75058;42.668;23.396;2024-01-27T02:15:10;11.13;;;3.53;;
8058;SDS011;75058;42.668;23.396;2024-01-27T02:17:40;12.63;;;3.17;;
8058;SDS011;75058;42.668;23.396;2024-01-27T02:20:11;7.90;;;3.20;;
8058;SDS011;75058;42.668;23.396;2024-01-27T02:22:40;7.87;;;3.57;;
8058;SDS011;75058;42.668;23.396;2024-01-27T02:25:09;11.33;;;3.73;;
8058;SDS011;75058;42.668;23.396;2024-01-27T02:27:37;10.13;;;3.70;;
8058;SDS011;75058;42.668;23.396;2024-01-27T02:30:05;16.40;;;5.10;;
8058;SDS011;75058;42.668;23.396;2024-01-27T02:32:34;14.60;;;4.67;;
8058;SDS011;75058;42.668;23.396;2024-01-27T02:35:02;12.00;;;4.70;;
8058;SDS011;75058;42.668;23.396;2024-01-27T02:37:31;17.77;;;5.60;;
8058;SDS011;75058;42.668;23.396;2024-01-27T02:39:58;10.67;;;5.23;;
8058;SDS011;75058;42.668;23.396;2024-01-27T02:42:28;14.23;;;6.00;;
8058;SDS011;75058;42.668;23.396;2024-01-27T02:44:56;9.37;;;4.60;;
8058;SDS011;75058;42.668;23.396;2024-01-27T02:47:24;16.97;;;5.53;;
8058;SDS011;75058;42.668;23.396;2024-01-27T02:49:52;12.87;;;5.23;;
8058;SDS011;75058;42.668;23.396;2024-01-27T02:52:20;10.70;;;5.63;;
8058;SDS011;75058;42.668;23.396;2024-01-27T02:54:48;16.80;;;5.60;;
8058;SDS011;75058;42.668;23.396;2024-01-27T02:57:16;11.93;;;4.67;;
8058;SDS011;75058;42.668;23.396;2024-01-27T02:59:47;12.07;;;4.93;;
8058;SDS011;75058;42.668;23.396;2024-01-27T03:02:16;15.50;;;5.67;;
8058;SDS011;75058;42.668;23.396;2024-01-27T03:04:44;17.50;;;5.47;;
8058;SDS011;75058;42.668;23.396;2024-01-27T03:07:12;17.27;;;5.73;;
8058;SDS011;75058;42.668;23.396;2024-01-27T03:09:40;13.10;;;5.13;;
8058;SDS011;75058;42.668;23.396;2024-01-27T03:12:08;21.47;;;5.20;;
8058;SDS011;75058;42.668;23.396;2024-01-27T03:14:36;12.90;;;5.53;;
8058;SDS011;75058;42.668;23.396;2024-01-27T03:17:05;14.93;;;5.03;;
8058;SDS011;75058;42.668;23.396;2024-01-27T03:19:33;16.03;;;5.03;;
8058;SDS011;75058;42.668;23.396;2024-01-27T03:22:01;16.40;;;5.10;;
8058;SDS011;75058;42.668;23.396;2024-01-27T03:24:29;12.53;;;5.00;;
8058;SDS011;75058;42.668;23.396;2024-01-27T03:26:57;21.03;;;5.43;;
8058;SDS011;75058;42.668;23.396;2024-01-27T03:29:26;10.63;;;4.67;;
8058;SDS011;75058;42.668;23.396;2024-01-27T03:31:54;12.63;;;4.07;;
8058;SDS011;75058;42.668;23.396;2024-01-27T03:34:23;10.87;;;3.53;;
8058;SDS011;75058;42.668;23.396;2024-01-27T03:36:54;16.10;;;4.13;;
8058;SDS011;75058;42.668;23.396;2024-01-27T03:39:22;10.80;;;2.87;;
8058;SDS011;75058;42.668;23.396;2024-01-27T03:41:50;10.27;;;2.60;;
8058;SDS011;75058;42.668;23.396;2024-01-27T03:44:18;9.97;;;2.27;;
8058;SDS011;75058;42.668;23.396;2024-01-27T03:46:46;5.83;;;1.63;;
8058;SDS011;75058;42.668;23.396;2024-01-27T03:49:14;3.30;;;1.10;;
8058;SDS011;75058;42.668;23.396;2024-01-27T03:51:44;5.20;;;1.17;;
8058;SDS011;75058;42.668;23.396;2024-01-27T03:54:12;5.93;;;1.80;;
8058;SDS011;75058;42.668;23.396;2024-01-27T03:56:40;2.60;;;0.93;;
8058;SDS011;75058;42.668;23.396;2024-01-27T03:59:08;3.80;;;1.40;;
8058;SDS011;75058;42.668;23.396;2024-01-27T04:01:37;5.90;;;1.80;;
8058;SDS011;75058;42.668;23.396;2024-01-27T04:04:05;2.63;;;1.10;;
8058;SDS011;75058;42.668;23.396;2024-01-27T04:06:36;4.53;;;1.17;;
8058;SDS011;75058;42.668;23.396;2024-01-27T04:09:06;4.63;;;1.53;;
8058;SDS011;75058;42.668;23.396;2024-01-27T04:11:35;6.53;;;1.50;;
8058;SDS011;75058;42.668;23.396;2024-01-27T04:14:04;4.00;;;0.90;;
8058;SDS011;75058;42.668;23.396;2024-01-27T04:16:32;3.00;;;1.30;;
8058;SDS011;75058;42.668;23.396;2024-01-27T04:19:00;6.67;;;1.67;;
8058;SDS011;75058;42.668;23.396;2024-01-27T04:21:28;6.43;;;1.30;;
8058;SDS011;75058;42.668;23.396;2024-01-27T04:23:56;3.53;;;2.03;;
8058;SDS011;75058;42.668;23.396;2024-01-27T04:26:26;4.27;;;2.07;;
8058;SDS011;75058;42.668;23.396;2024-01-27T04:28:54;5.77;;;1.80;;
8058;SDS011;75058;42.668;23.396;2024-01-27T04:31:22;2.10;;;1.33;;
8058;SDS011;75058;42.668;23.396;2024-01-27T04:33:50;9.37;;;1.67;;
8058;SDS011;75058;42.668;23.396;2024-01-27T04:36:24;2.23;;;1.20;;
8058;SDS011;75058;42.668;23.396;2024-01-27T04:38:54;4.47;;;1.93;;
8058;SDS011;75058;42.668;23.396;2024-01-27T04:41:22;6.13;;;1.80;;
8058;SDS011;75058;42.668;23.396;2024-01-27T04:43:51;5.00;;;1.70;;
8058;SDS011;75058;42.668;23.396;2024-01-27T04:46:21;3.87;;;1.67;;
8058;SDS011;75058;42.668;23.396;2024-01-27T04:48:50;5.03;;;1.93;;
8058;SDS011;75058;42.668;23.396;2024-01-27T04:51:18;4.43;;;1.77;;
8058;SDS011;75058;42.668;23.396;2024-01-27T04:53:46;9.00;;;2.90;;
8058;SDS011;75058;42.668;23.396;2024-01-27T04:56:14;12.20;;;3.13;;
8058;SDS011;75058;42.668;23.396;2024-01-27T04:58:42;6.57;;;2.53;;
8058;SDS011;75058;42.668;23.396;2024-01-27T05:01:11;7.20;;;2.80;;
8058;SDS011;75058;42.668;23.396;2024-01-27T05:03:39;7.47;;;2.60;;
8058;SDS011;75058;42.668;23.396;2024-01-27T05:06:08;12.27;;;2.90;;
8058;SDS011;75058;42.668;23.396;2024-01-27T05:08:37;6.93;;;2.70;;
8058;SDS011;75058;42.668;23.396;2024-01-27T05:11:06;12.73;;;3.37;;
8058;SDS011;75058;42.668;23.396;2024-01-27T05:13:34;7.97;;;2.57;;
8058;SDS011;75058;42.668;23.396;2024-01-27T05:16:02;8.80;;;2.50;;
8058;SDS011;75058;42.668;23.396;2024-01-27T05:18:31;7.37;;;3.10;;
8058;SDS011;75058;42.668;23.396;2024-01-27T05:20:59;14.43;;;4.17;;
8058;SDS011;75058;42.668;23.396;2024-01-27T05:23:27;10.77;;;3.47;;
8058;SDS011;75058;42.668;23.396;2024-01-27T05:25:55;11.77;;;3.57;;
8058;SDS011;75058;42.668;23.396;2024-01-27T05:28:23;9.23;;;3.33;;
8058;SDS011;75058;42.668;23.396;2024-01-27T05:30:51;15.47;;;3.97;;
8058;SDS011;75058;42.668;23.396;2024-01-27T05:33:19;8.50;;;3.57;;
8058;SDS011;75058;42.668;23.396;2024-01-27T05:35:48;8.10;;;2.90;;
8058;SDS011;75058;42.668;23.396;2024-01-27T05:38:16;15.33;;;5.13;;
8058;SDS011;75058;42.668;23.396;2024-01-27T05:40:44;10.07;;;4.13;;
8058;SDS011;75058;42.668;23.396;2024-01-27T05:43:12;14.30;;;4.63;;
8058;SDS011;75058;42.668;23.396;2024-01-27T05:45:40;15.10;;;4.40;;
8058;SDS011;75058;42.668;23.396;2024-01-27T05:48:08;15.77;;;4.93;;
8058;SDS011;75058;42.668;23.396;2024-01-27T05:50:36;14.13;;;4.60;;
8058;SDS011;75058;42.668;23.396;2024-01-27T05:53:06;7.83;;;3.43;;
8058;SDS011;75058;42.668;23.396;2024-01-27T05:55:34;9.20;;;2.93;;
8058;SDS011;75058;42.668;23.396;2024-01-27T05:58:02;8.77;;;3.93;;
8058;SDS011;75058;42.668;23.396;2024-01-27T06:00:30;5.80;;;1.90;;
8058;SDS011;75058;42.668;23.396;2024-01-27T06:02:58;7.37;;;3.07;;
8058;SDS011;75058;42.668;23.396;2024-01-27T06:05:26;16.80;;;5.70;;
8058;SDS011;75058;42.668;23.396;2024-01-27T06:07:54;12.10;;;5.60;;
8058;SDS011;75058;42.668;23.396;2024-01-27T06:10:23;9.27;;;5.67;;
8058;SDS011;75058;42.668;23.396;2024-01-27T06:12:51;15.47;;;6.67;;
8058;SDS011;75058;42.668;23.396;2024-01-27T06:15:19;19.70;;;8.13;;
8058;SDS011;75058;42.668;23.396;2024-01-27T06:17:47;21.53;;;8.53;;
8058;SDS011;75058;42.668;23.396;2024-01-27T06:20:15;14.27;;;4.47;;
8058;SDS011;75058;42.668;23.396;2024-01-27T06:22:45;16.97;;;5.03;;
8058;SDS011;75058;42.668;23.396;2024-01-27T06:25:13;5.90;;;2.03;;
8058;SDS011;75058;42.668;23.396;2024-01-27T06:27:44;7.17;;;2.23;;
8058;SDS011;75058;42.668;23.396;2024-01-27T06:30:12;9.77;;;3.80;;
8058;SDS011;75058;42.668;23.396;2024-01-27T06:32:42;13.53;;;3.93;;
8058;SDS011;75058;42.668;23.396;2024-01-27T06:35:10;12.63;;;3.77;;
8058;SDS011;75058;42.668;23.396;2024-01-27T06:37:38;10.53;;;3.80;;
8058;SDS011;75058;42.668;23.396;2024-01-27T06:40:06;6.27;;;2.57;;
8058;SDS011;75058;42.668;23.396;2024-01-27T06:42:35;11.73;;;3.57;;
8058;SDS011;75058;42.668;23.396;2024-01-27T06:45:05;11.07;;;3.93;;
8058;SDS011;75058;42.668;23.396;2024-01-27T06:47:34;8.93;;;4.07;;
8058;SDS011;75058;42.668;23.396;2024-01-27T06:50:02;7.97;;;3.67;;
8058;SDS011;75058;42.668;23.396;2024-01-27T06:52:30;7.93;;;3.33;;
8058;SDS011;75058;42.668;23.396;2024-01-27T06:54:58;14.87;;;5.43;;
8058;SDS011;75058;42.668;23.396;2024-01-27T06:57:26;12.63;;;4.47;;
8058;SDS011;75058;42.668;23.396;2024-01-27T06:59:54;5.57;;;2.60;;
8058;SDS011;75058;42.668;23.396;2024-01-27T07:02:24;3.33;;;1.50;;
8058;SDS011;75058;42.668;23.396;2024-01-27T07:04:53;2.30;;;1.50;;
8058;SDS011;75058;42.668;23.396;2024-01-27T07:07:21;2.97;;;1.13;;
8058;SDS011;75058;42.668;23.396;2024-01-27T07:09:51;3.27;;;0.90;;
8058;SDS011;75058;42.668;23.396;2024-01-27T07:12:20;2.07;;;1.13;;
8058;SDS011;75058;42.668;23.396;2024-01-27T07:14:48;2.07;;;0.83;;
8058;SDS011;75058;42.668;23.396;2024-01-27T07:17:16;1.90;;;0.90;;
8058;SDS011;75058;42.668;23.396;2024-01-27T07:19:46;1.38;;;0.60;;
8058;SDS011;75058;42.668;23.396;2024-01-27T07:22:14;3.10;;;0.88;;
8058;SDS011;75058;42.668;23.396;2024-01-27T07:24:42;1.02;;;0.60;;
8058;SDS011;75058;42.668;23.396;2024-01-27T07:27:11;1.92;;;0.70;;
8058;SDS011;75058;42.668;23.396;2024-01-27T07:29:40;0.82;;;0.40;;
8058;SDS011;75058;42.668;23.396;2024-01-27T07:32:08;4.60;;;0.70;;
8058;SDS011;75058;42.668;23.396;2024-01-27T07:34:40;1.33;;;0.65;;
8058;SDS011;75058;42.668;23.396;2024-01-27T07:37:10;2.58;;;0.90;;
8058;SDS011;75058;42.668;23.396;2024-01-27T07:39:38;2.22;;;1.00;;
8058;SDS011;75058;42.668;23.396;2024-01-27T07:42:06;1.90;;;0.90;;
8058;SDS011;75058;42.668;23.396;2024-01-27T07:44:36;3.20;;;1.17;;
8058;SDS011;75058;42.668;23.396;2024-01-27T07:47:04;0.98;;;0.70;;
8058;SDS011;75058;42.668;23.396;2024-01-27T07:49:32;3.00;;;1.10;;
8058;SDS011;75058;42.668;23.396;2024-01-27T07:52:00;0.98;;;0.70;;
8058;SDS011;75058;42.668;23.396;2024-01-27T07:54:29;0.73;;;0.50;;
8058;SDS011;75058;42.668;23.396;2024-01-27T07:56:58;6.28;;;1.60;;
8058;SDS011;75058;42.668;23.396;2024-01-27T07:59:26;1.75;;;0.88;;
8058;SDS011;75058;42.668;23.396;2024-01-27T08:01:54;4.47;;;1.30;;
8058;SDS011;75058;42.668;23.396;2024-01-27T08:04:22;4.07;;;1.35;;
8058;SDS011;75058;42.668;23.396;2024-01-27T08:06:50;2.53;;;1.13;;
8058;SDS011;75058;42.668;23.396;2024-01-27T08:09:18;3.85;;;1.65;;
8058;SDS011;75058;42.668;23.396;2024-01-27T08:11:48;5.82;;;2.00;;
8058;SDS011;75058;42.668;23.396;2024-01-27T08:14:19;3.70;;;1.23;;
8058;SDS011;75058;42.668;23.396;2024-01-27T08:16:48;1.77;;;1.17;;
8058;SDS011;75058;42.668;23.396;2024-01-27T08:19:16;2.95;;;1.40;;
8058;SDS011;75058;42.668;23.396;2024-01-27T08:21:47;8.05;;;1.17;;
8058;SDS011;75058;42.668;23.396;2024-01-27T08:24:15;7.75;;;2.53;;
8058;SDS011;75058;42.668;23.396;2024-01-27T08:26:43;2.90;;;1.23;;
8058;SDS011;75058;42.668;23.396;2024-01-27T08:29:14;1.98;;;1.35;;
8058;SDS011;75058;42.668;23.396;2024-01-27T08:31:42;1.88;;;1.17;;
8058;SDS011;75058;42.668;23.396;2024-01-27T08:34:10;1.33;;;1.05;;
8058;SDS011;75058;42.668;23.396;2024-01-27T08:36:40;2.17;;;1.05;;
8058;SDS011;75058;42.668;23.396;2024-01-27T08:39:09;2.97;;;1.50;;
8058;SDS011;75058;42.668;23.396;2024-01-27T08:41:39;2.80;;;1.65;;
8058;SDS011;75058;42.668;23.396;2024-01-27T08:44:07;4.07;;;1.58;;
8058;SDS011;75058;42.668;23.396;2024-01-27T08:46:36;3.90;;;1.17;;
8058;SDS011;75058;42.668;23.396;2024-01-27T08:49:04;2.53;;;1.35;;
8058;SDS011;75058;42.668;23.396;2024-01-27T08:51:32;2.47;;;1.30;;
8058;SDS011;75058;42.668;23.396;2024-01-27T08:54:01;1.60;;;1.15;;
8058;SDS011;75058;42.668;23.396;2024-01-27T08:56:29;4.05;;;0.80;;
8058;SDS011;75058;42.668;23.396;2024-01-27T08:58:57;3.33;;;1.30;;
8058;SDS011;75058;42.668;23.396;2024-01-27T09:01:25;3.47;;;1.70;;
8058;SDS011;75058;42.668;23.396;2024-01-27T09:03:55;2.20;;;1.20;;
8058;SDS011;75058;42.668;23.396;2024-01-27T09:06:23;1.73;;;0.95;;
8058;SDS011;75058;42.668;23.396;2024-01-27T09:08:56;1.17;;;0.85;;
8058;SDS011;75058;42.668;23.396;2024-01-27T09:11:24;2.83;;;1.02;;
8058;SDS011;75058;42.668;23.396;2024-01-27T09:13:54;2.53;;;1.08;;
8058;SDS011;75058;42.668;23.396;2024-01-27T09:16:22;2.45;;;0.90;;
8058;SDS011;75058;42.668;23.396;2024-01-27T09:18:50;2.25;;;0.90;;
8058;SDS011;75058;42.668;23.396;2024-01-27T09:21:21;3.38;;;1.67;;
8058;SDS011;75058;42.668;23.396;2024-01-27T09:23:54;1.95;;;0.95;;
8058;SDS011;75058;42.668;23.396;2024-01-27T09:26:23;1.00;;;0.80;;
8058;SDS011;75058;42.668;23.396;2024-01-27T09:28:51;4.63;;;1.00;;
8058;SDS011;75058;42.668;23.396;2024-01-27T09:31:21;2.05;;;1.27;;
8058;SDS011;75058;42.668;23.396;2024-01-27T09:33:50;1.60;;;1.02;;
8058;SDS011;75058;42.668;23.396;2024-01-27T09:36:21;2.33;;;1.25;;
8058;SDS011;75058;42.668;23.396;2024-01-27T09:38:49;3.03;;;1.00;;
8058;SDS011;75058;42.668;23.396;2024-01-27T09:41:18;1.20;;;0.90;;
8058;SDS011;75058;42.668;23.396;2024-01-27T09:43:47;2.78;;;1.08;;
8058;SDS011;75058;42.668;23.396;2024-01-27T09:46:15;3.30;;;1.10;;
8058;SDS011;75058;42.668;23.396;2024-01-27T09:48:43;1.27;;;0.85;;
8058;SDS011;75058;42.668;23.396;2024-01-27T09:51:12;1.63;;;1.10;;
8058;SDS011;75058;42.668;23.396;2024-01-27T09:53:42;2.97;;;1.08;;
8058;SDS011;75058;42.668;23.396;2024-01-27T09:56:10;1.77;;;0.95;;
8058;SDS011;75058;42.668;23.396;2024-01-27T09:58:44;2.03;;;0.95;;
8058;SDS011;75058;42.668;23.396;2024-01-27T10:01:17;2.13;;;0.70;;
8058;SDS011;75058;42.668;23.396;2024-01-27T10:03:46;1.50;;;1.00;;
8058;SDS011;75058;42.668;23.396;2024-01-27T10:06:15;1.98;;;0.85;;
8058;SDS011;75058;42.668;23.396;2024-01-27T10:08:45;1.85;;;1.20;;
8058;SDS011;75058;42.668;23.396;2024-01-27T10:11:21;3.63;;;1.38;;
8058;SDS011;75058;42.668;23.396;2024-01-27T10:13:53;1.00;;;0.82;;
8058;SDS011;75058;42.668;23.396;2024-01-27T10:16:25;6.40;;;1.13;;
8058;SDS011;75058;42.668;23.396;2024-01-27T10:19:00;2.92;;;1.27;;
8058;SDS011;75058;42.668;23.396;2024-01-27T10:21:29;1.83;;;0.75;;
8058;SDS011;75058;42.668;23.396;2024-01-27T10:23:59;2.00;;;1.15;;
8058;SDS011;75058;42.668;23.396;2024-01-27T10:26:30;1.08;;;0.90;;
8058;SDS011;75058;42.668;23.396;2024-01-27T10:28:59;1.92;;;0.88;;
8058;SDS011;75058;42.668;23.396;2024-01-27T10:31:28;2.75;;;1.40;;
8058;SDS011;75058;42.668;23.396;2024-01-27T10:33:57;2.35;;;1.13;;
8058;SDS011;75058;42.668;23.396;2024-01-27T10:36:25;5.10;;;1.52;;
8058;SDS011;75058;42.668;23.396;2024-01-27T10:38:53;1.75;;;0.85;;
8058;SDS011;75058;42.668;23.396;2024-01-27T10:41:23;0.90;;;0.70;;
8058;SDS011;75058;42.668;23.396;2024-01-27T10:43:53;0.98;;;0.88;;
8058;SDS011;75058;42.668;23.396;2024-01-27T10:46:24;1.05;;;0.70;;
8058;SDS011;75058;42.668;23.396;2024-01-27T10:48:54;0.98;;;0.45;;
8058;SDS011;75058;42.668;23.396;2024-01-27T10:51:23;0.65;;;0.50;;
8058;SDS011;75058;42.668;23.396;2024-01-27T10:54:01;1.13;;;0.70;;
8058;SDS011;75058;42.668;23.396;2024-01-27T10:56:31;1.70;;;1.00;;
8058;SDS011;75058;42.668;23.396;2024-01-27T10:59:00;2.65;;;0.88;;
8058;SDS011;75058;42.668;23.396;2024-01-27T11:01:31;12.18;;;1.20;;
8058;SDS011;75058;42.668;23.396;2024-01-27T11:03:59;1.75;;;1.13;;
8058;SDS011;75058;42.668;23.396;2024-01-27T11:06:29;3.42;;;1.00;;
8058;SDS011;75058;42.668;23.396;2024-01-27T11:09:01;2.22;;;1.52;;
8058;SDS011;75058;42.668;23.396;2024-01-27T11:11:33;1.95;;;1.10;;
8058;SDS011;75058;42.668;23.396;2024-01-27T11:14:02;0.77;;;0.77;;
8058;SDS011;75058;42.668;23.396;2024-01-27T11:16:30;1.92;;;1.20;;
8058;SDS011;75058;42.668;23.396;2024-01-27T11:18:58;1.70;;;1.30;;
8058;SDS011;75058;42.668;23.396;2024-01-27T11:21:27;2.17;;;1.27;;
8058;SDS011;75058;42.668;23.396;2024-01-27T11:23:56;4.32;;;1.42;;
8058;SDS011;75058;42.668;23.396;2024-01-27T11:26:24;1.15;;;0.90;;
8058;SDS011;75058;42.668;23.396;2024-01-27T11:28:54;2.97;;;1.33;;
8058;SDS011;75058;42.668;23.396;2024-01-27T11:31:21;2.67;;;1.30;;
8058;SDS011;75058;42.668;23.396;2024-01-27T11:33:50;4.88;;;1.20;;
8058;SDS011;75058;42.668;23.396;2024-01-27T11:36:21;3.72;;;1.55;;
8058;SDS011;75058;42.668;23.396;2024-01-27T11:38:51;3.75;;;1.52;;
8058;SDS011;75058;42.668;23.396;2024-01-27T11:41:28;3.03;;;0.95;;
8058;SDS011;75058;42.668;23.396;2024-01-27T11:43:58;2.65;;;1.08;;
8058;SDS011;75058;42.668;23.396;2024-01-27T11:46:27;3.60;;;1.63;;
8058;SDS011;75058;42.668;23.396;2024-01-27T11:48:55;1.33;;;0.85;;
8058;SDS011;75058;42.668;23.396;2024-01-27T11:51:24;3.75;;;1.50;;
8058;SDS011;75058;42.668;23.396;2024-01-27T11:53:52;1.00;;;0.90;;
8058;SDS011;75058;42.668;23.396;2024-01-27T11:56:21;2.65;;;1.02;;
8058;SDS011;75058;42.668;23.396;2024-01-27T11:58:49;2.08;;;1.42;;
8058;SDS011;75058;42.668;23.396;2024-01-27T12:01:19;1.73;;;1.20;;
8058;SDS011;75058;42.668;23.396;2024-01-27T12:03:47;1.90;;;1.17;;
8058;SDS011;75058;42.668;23.396;2024-01-27T12:06:15;2.03;;;1.30;;
8058;SDS011;75058;42.668;23.396;2024-01-27T12:08:45;2.40;;;1.27;;
8058;SDS011;75058;42.668;23.396;2024-01-27T12:11:15;5.05;;;1.80;;
8058;SDS011;75058;42.668;23.396;2024-01-27T12:13:50;2.97;;;1.35;;
8058;SDS011;75058;42.668;23.396;2024-01-27T12:16:21;3.13;;;1.30;;
8058;SDS011;75058;42.668;23.396;2024-01-27T12:18:51;3.53;;;1.80;;
8058;SDS011;75058;42.668;23.396;2024-01-27T12:21:20;1.23;;;1.13;;
8058;SDS011;75058;42.668;23.396;2024-01-27T12:23:51;3.10;;;2.08;;
8058;SDS011;75058;42.668;23.396;2024-01-27T12:26:20;1.67;;;1.08;;
8058;SDS011;75058;42.668;23.396;2024-01-27T12:28:49;4.28;;;1.48;;
8058;SDS011;75058;42.668;23.396;2024-01-27T12:31:18;4.47;;;1.15;;
8058;SDS011;75058;42.668;23.396;2024-01-27T12:33:50;5.55;;;1.98;;
8058;SDS011;75058;42.668;23.396;2024-01-27T12:36:19;3.85;;;1.33;;
8058;SDS011;75058;42.668;23.396;2024-01-27T12:38:54;2.70;;;1.50;;
8058;SDS011;75058;42.668;23.396;2024-01-27T12:41:24;1.13;;;1.00;;
8058;SDS011;75058;42.668;23.396;2024-01-27T12:43:53;2.30;;;1.30;;
8058;SDS011;75058;42.668;23.396;2024-01-27T12:46:23;2.85;;;1.85;;
8058;SDS011;75058;42.668;23.396;2024-01-27T12:48:51;3.53;;;1.25;;
8058;SDS011;75058;42.668;23.396;2024-01-27T12:51:20;3.42;;;0.90;;
8058;SDS011;75058;42.668;23.396;2024-01-27T12:53:48;1.75;;;0.77;;
8058;SDS011;75058;42.668;23.396;2024-01-27T12:56:16;1.88;;;1.00;;
8058;SDS011;75058;42.668;23.396;2024-01-27T12:58:44;2.42;;;1.17;;
8058;SDS011;75058;42.668;23.396;2024-01-27T13:01:12;1.10;;;0.90;;
8058;SDS011;75058;42.668;23.396;2024-01-27T13:03:42;1.80;;;0.95;;
8058;SDS011;75058;42.668;23.396;2024-01-27T13:06:11;1.60;;;0.85;;
8058;SDS011;75058;42.668;23.396;2024-01-27T13:08:40;0.85;;;0.63;;
8058;SDS011;75058;42.668;23.396;2024-01-27T13:11:09;4.57;;;1.08;;
8058;SDS011;75058;42.668;23.396;2024-01-27T13:13:39;1.50;;;0.85;;
8058;SDS011;75058;42.668;23.396;2024-01-27T13:16:08;4.47;;;0.98;;
8058;SDS011;75058;42.668;23.396;2024-01-27T13:18:36;3.67;;;0.88;;
8058;SDS011;75058;42.668;23.396;2024-01-27T13:21:08;1.20;;;0.80;;
8058;SDS011;75058;42.668;23.396;2024-01-27T13:23:36;4.18;;;0.80;;
8058;SDS011;75058;42.668;23.396;2024-01-27T13:26:04;2.60;;;1.10;;
8058;SDS011;75058;42.668;23.396;2024-01-27T13:28:44;0.55;;;0.52;;
8058;SDS011;75058;42.668;23.396;2024-01-27T13:31:13;1.90;;;1.10;;
8058;SDS011;75058;42.668;23.396;2024-01-27T13:33:41;4.78;;;1.52;;
8058;SDS011;75058;42.668;23.396;2024-01-27T13:36:10;1.80;;;1.05;;
8058;SDS011;75058;42.668;23.396;2024-01-27T13:38:39;1.23;;;0.80;;
8058;SDS011;75058;42.668;23.396;2024-01-27T13:41:07;4.07;;;1.52;;
8058;SDS011;75058;42.668;23.396;2024-01-27T13:43:35;1.80;;;0.77;;
8058;SDS011;75058;42.668;23.396;2024-01-27T13:46:03;1.40;;;1.10;;
8058;SDS011;75058;42.668;23.396;2024-01-27T13:48:31;0.70;;;0.63;;
8058;SDS011;75058;42.668;23.396;2024-01-27T13:51:00;2.05;;;0.90;;
8058;SDS011;75058;42.668;23.396;2024-01-27T13:53:29;2.15;;;0.90;;
8058;SDS011;75058;42.668;23.396;2024-01-27T13:56:11;1.77;;;1.00;;
8058;SDS011;75058;42.668;23.396;2024-01-27T13:58:40;2.22;;;1.42;;
8058;SDS011;75058;42.668;23.396;2024-01-27T14:01:09;2.85;;;1.00;;
8058;SDS011;75058;42.668;23.396;2024-01-27T14:03:37;1.48;;;0.75;;
8058;SDS011;75058;42.668;23.396;2024-01-27T14:06:05;3.70;;;1.45;;
8058;SDS011;75058;42.668;23.396;2024-01-27T14:08:35;1.77;;;0.82;;
8058;SDS011;75058;42.668;23.396;2024-01-27T14:11:03;1.15;;;0.70;;
8058;SDS011;75058;42.668;23.396;2024-01-27T14:13:31;2.67;;;1.00;;
8058;SDS011;75058;42.668;23.396;2024-01-27T14:16:00;1.25;;;0.90;;
8058;SDS011;75058;42.668;23.396;2024-01-27T14:18:28;1.88;;;1.23;;
8058;SDS011;75058;42.668;23.396;2024-01-27T14:20:58;0.50;;;0.40;;
8058;SDS011;75058;42.668;23.396;2024-01-27T14:23:26;2.47;;;0.70;;
8058;SDS011;75058;42.668;23.396;2024-01-27T14:25:56;8.07;;;1.52;;
8058;SDS011;75058;42.668;23.396;2024-01-27T14:28:24;0.85;;;0.70;;
8058;SDS011;75058;42.668;23.396;2024-01-27T14:30:53;1.70;;;0.70;;
8058;SDS011;75058;42.668;23.396;2024-01-27T14:33:21;1.40;;;1.00;;
8058;SDS011;75058;42.668;23.396;2024-01-27T14:35:50;7.60;;;0.98;;
8058;SDS011;75058;42.668;23.396;2024-01-27T14:38:18;3.78;;;0.95;;
8058;SDS011;75058;42.668;23.396;2024-01-27T14:40:46;4.13;;;0.75;;
8058;SDS011;75058;42.668;23.396;2024-01-27T14:43:16;3.92;;;1.15;;
8058;SDS011;75058;42.668;23.396;2024-01-27T14:45:46;2.17;;;0.90;;
8058;SDS011;75058;42.668;23.396;2024-01-27T14:48:14;3.85;;;1.10;;
8058;SDS011;75058;42.668;23.396;2024-01-27T14:50:45;4.87;;;1.37;;
8058;SDS011;75058;42.668;23.396;2024-01-27T14:53:19;1.52;;;1.00;;